sensor_id;sensor_type;location;lat;lon;timestamp;P1;durP1;ratioP1;P2;durP2;ratioP2
9904;SDS011;4991;43.566;27.820;2023-07-30T00:00:56;3.87;;;3.57;;
9904;SDS011;4991;43.566;27.820;2023-07-30T00:03:21;3.57;;;3.27;;
9904;SDS011;4991;43.566;27.820;2023-07-30T00:05:56;4.10;;;3.20;;
9904;SDS011;4991;43.566;27.820;2023-07-30T00:08:22;4.63;;;3.67;;
9904;SDS011;4991;43.566;27.820;2023-07-30T00:10:48;5.57;;;3.60;;
9904;SDS011;4991;43.566;27.820;2023-07-30T00:13:18;5.03;;;3.63;;
9904;SDS011;4991;43.566;27.820;2023-07-30T00:15:46;6.80;;;3.70;;
9904;SDS011;4991;43.566;27.820;2023-07-30T00:18:12;5.00;;;3.67;;
9904;SDS011;4991;43.566;27.820;2023-07-30T00:20:38;4.63;;;3.60;;
9904;SDS011;4991;43.566;27.820;2023-07-30T00:23:04;3.90;;;3.50;;
9904;SDS011;4991;43.566;27.820;2023-07-30T00:25:29;4.77;;;3.60;;
9904;SDS011;4991;43.566;27.820;2023-07-30T00:27:55;3.87;;;3.47;;
9904;SDS011;4991;43.566;27.820;2023-07-30T00:30:21;4.80;;;3.60;;
9904;SDS011;4991;43.566;27.820;2023-07-30T00:32:46;4.43;;;3.90;;
9904;SDS011;4991;43.566;27.820;2023-07-30T00:35:12;4.73;;;3.10;;
9904;SDS011;4991;43.566;27.820;2023-07-30T00:37:38;5.43;;;3.70;;
9904;SDS011;4991;43.566;27.820;2023-07-30T00:40:03;3.40;;;3.10;;
9904;SDS011;4991;43.566;27.820;2023-07-30T00:42:31;3.43;;;3.13;;
9904;SDS011;4991;43.566;27.820;2023-07-30T00:44:56;5.60;;;4.13;;
9904;SDS011;4991;43.566;27.820;2023-07-30T00:47:22;5.50;;;3.47;;
9904;SDS011;4991;43.566;27.820;2023-07-30T00:49:49;5.87;;;3.73;;
9904;SDS011;4991;43.566;27.820;2023-07-30T00:52:21;3.63;;;3.20;;
9904;SDS011;4991;43.566;27.820;2023-07-30T00:54:48;3.83;;;3.30;;
9904;SDS011;4991;43.566;27.820;2023-07-30T00:57:15;4.93;;;3.50;;
9904;SDS011;4991;43.566;27.820;2023-07-30T00:59:43;3.77;;;3.07;;
9904;SDS011;4991;43.566;27.820;2023-07-30T01:02:08;3.87;;;3.33;;
9904;SDS011;4991;43.566;27.820;2023-07-30T01:04:34;4.20;;;3.60;;
9904;SDS011;4991;43.566;27.820;2023-07-30T01:07:05;3.87;;;3.30;;
9904;SDS011;4991;43.566;27.820;2023-07-30T01:09:32;4.03;;;3.30;;
9904;SDS011;4991;43.566;27.820;2023-07-30T01:11:58;4.63;;;3.43;;
9904;SDS011;4991;43.566;27.820;2023-07-30T01:14:25;6.17;;;3.33;;
9904;SDS011;4991;43.566;27.820;2023-07-30T01:16:52;3.53;;;3.20;;
9904;SDS011;4991;43.566;27.820;2023-07-30T01:19:18;4.03;;;3.20;;
9904;SDS011;4991;43.566;27.820;2023-07-30T01:21:43;6.00;;;3.27;;
9904;SDS011;4991;43.566;27.820;2023-07-30T01:24:09;3.40;;;3.10;;
9904;SDS011;4991;43.566;27.820;2023-07-30T01:26:45;4.23;;;3.40;;
9904;SDS011;4991;43.566;27.820;2023-07-30T01:29:16;4.33;;;3.30;;
9904;SDS011;4991;43.566;27.820;2023-07-30T01:32:02;4.40;;;3.67;;
9904;SDS011;4991;43.566;27.820;2023-07-30T01:34:31;3.80;;;3.50;;
9904;SDS011;4991;43.566;27.820;2023-07-30T01:37:00;5.27;;;3.30;;
9904;SDS011;4991;43.566;27.820;2023-07-30T01:39:27;4.73;;;3.63;;
9904;SDS011;4991;43.566;27.820;2023-07-30T01:41:54;3.93;;;3.50;;
9904;SDS011;4991;43.566;27.820;2023-07-30T01:44:20;5.73;;;3.70;;
9904;SDS011;4991;43.566;27.820;2023-07-30T01:46:45;4.93;;;3.30;;
9904;SDS011;4991;43.566;27.820;2023-07-30T01:49:11;3.73;;;3.40;;
9904;SDS011;4991;43.566;27.820;2023-07-30T01:51:37;3.83;;;3.33;;
9904;SDS011;4991;43.566;27.820;2023-07-30T01:54:02;8.73;;;3.93;;
9904;SDS011;4991;43.566;27.820;2023-07-30T01:56:28;11.10;;;4.33;;
9904;SDS011;4991;43.566;27.820;2023-07-30T01:58:53;7.73;;;3.70;;
9904;SDS011;4991;43.566;27.820;2023-07-30T02:01:19;4.90;;;3.73;;
9904;SDS011;4991;43.566;27.820;2023-07-30T02:03:45;4.27;;;3.87;;
9904;SDS011;4991;43.566;27.820;2023-07-30T02:06:11;5.80;;;3.67;;
9904;SDS011;4991;43.566;27.820;2023-07-30T02:08:37;5.10;;;3.23;;
9904;SDS011;4991;43.566;27.820;2023-07-30T02:11:03;4.30;;;3.50;;
9904;SDS011;4991;43.566;27.820;2023-07-30T02:13:29;5.13;;;4.63;;
9904;SDS011;4991;43.566;27.820;2023-07-30T02:15:54;4.27;;;3.67;;
9904;SDS011;4991;43.566;27.820;2023-07-30T02:18:20;5.47;;;3.70;;
9904;SDS011;4991;43.566;27.820;2023-07-30T02:20:46;5.70;;;4.07;;
9904;SDS011;4991;43.566;27.820;2023-07-30T02:23:13;8.50;;;3.70;;
9904;SDS011;4991;43.566;27.820;2023-07-30T02:25:40;4.53;;;3.73;;
9904;SDS011;4991;43.566;27.820;2023-07-30T02:28:05;6.17;;;3.63;;
9904;SDS011;4991;43.566;27.820;2023-07-30T02:30:32;4.47;;;3.97;;
9904;SDS011;4991;43.566;27.820;2023-07-30T02:32:59;7.50;;;6.77;;
9904;SDS011;4991;43.566;27.820;2023-07-30T02:35:25;6.33;;;5.73;;
9904;SDS011;4991;43.566;27.820;2023-07-30T02:37:50;7.13;;;3.53;;
9904;SDS011;4991;43.566;27.820;2023-07-30T02:40:17;5.50;;;3.73;;
9904;SDS011;4991;43.566;27.820;2023-07-30T02:42:43;4.37;;;3.73;;
9904;SDS011;4991;43.566;27.820;2023-07-30T02:45:09;5.80;;;3.93;;
9904;SDS011;4991;43.566;27.820;2023-07-30T02:47:35;5.03;;;3.30;;
9904;SDS011;4991;43.566;27.820;2023-07-30T02:50:01;6.13;;;4.37;;
9904;SDS011;4991;43.566;27.820;2023-07-30T02:52:27;3.80;;;3.50;;
9904;SDS011;4991;43.566;27.820;2023-07-30T02:54:53;6.57;;;4.10;;
9904;SDS011;4991;43.566;27.820;2023-07-30T02:57:18;5.97;;;4.87;;
9904;SDS011;4991;43.566;27.820;2023-07-30T02:59:44;9.57;;;3.93;;
9904;SDS011;4991;43.566;27.820;2023-07-30T03:02:10;5.50;;;4.73;;
9904;SDS011;4991;43.566;27.820;2023-07-30T03:04:35;10.00;;;4.87;;
9904;SDS011;4991;43.566;27.820;2023-07-30T03:07:01;10.57;;;4.90;;
9904;SDS011;4991;43.566;27.820;2023-07-30T03:09:26;8.70;;;4.97;;
9904;SDS011;4991;43.566;27.820;2023-07-30T03:11:52;6.83;;;4.53;;
9904;SDS011;4991;43.566;27.820;2023-07-30T03:14:18;7.33;;;5.17;;
9904;SDS011;4991;43.566;27.820;2023-07-30T03:16:46;7.13;;;3.83;;
9904;SDS011;4991;43.566;27.820;2023-07-30T03:19:12;6.73;;;4.10;;
9904;SDS011;4991;43.566;27.820;2023-07-30T03:21:38;6.60;;;4.07;;
9904;SDS011;4991;43.566;27.820;2023-07-30T03:24:03;6.50;;;4.20;;
9904;SDS011;4991;43.566;27.820;2023-07-30T03:26:29;6.77;;;4.47;;
9904;SDS011;4991;43.566;27.820;2023-07-30T03:28:55;10.97;;;3.80;;
9904;SDS011;4991;43.566;27.820;2023-07-30T03:31:20;5.07;;;3.87;;
9904;SDS011;4991;43.566;27.820;2023-07-30T03:33:46;4.03;;;3.63;;
9904;SDS011;4991;43.566;27.820;2023-07-30T03:36:12;7.40;;;4.17;;
9904;SDS011;4991;43.566;27.820;2023-07-30T03:38:41;7.87;;;3.70;;
9904;SDS011;4991;43.566;27.820;2023-07-30T03:41:08;4.90;;;3.80;;
9904;SDS011;4991;43.566;27.820;2023-07-30T03:43:35;6.30;;;4.33;;
9904;SDS011;4991;43.566;27.820;2023-07-30T03:46:01;4.77;;;3.90;;
9904;SDS011;4991;43.566;27.820;2023-07-30T03:48:27;7.43;;;3.93;;
9904;SDS011;4991;43.566;27.820;2023-07-30T03:50:53;5.33;;;4.00;;
9904;SDS011;4991;43.566;27.820;2023-07-30T03:53:19;11.43;;;4.90;;
9904;SDS011;4991;43.566;27.820;2023-07-30T03:55:45;9.40;;;4.33;;
9904;SDS011;4991;43.566;27.820;2023-07-30T03:58:11;7.20;;;4.07;;
9904;SDS011;4991;43.566;27.820;2023-07-30T04:00:37;7.57;;;4.17;;
9904;SDS011;4991;43.566;27.820;2023-07-30T04:03:03;3.47;;;3.17;;
9904;SDS011;4991;43.566;27.820;2023-07-30T04:05:29;7.07;;;3.80;;
9904;SDS011;4991;43.566;27.820;2023-07-30T04:07:55;4.27;;;3.50;;
9904;SDS011;4991;43.566;27.820;2023-07-30T04:10:22;8.03;;;3.83;;
9904;SDS011;4991;43.566;27.820;2023-07-30T04:12:47;7.07;;;4.40;;
9904;SDS011;4991;43.566;27.820;2023-07-30T04:15:14;6.10;;;3.43;;
9904;SDS011;4991;43.566;27.820;2023-07-30T04:17:41;7.30;;;3.80;;
9904;SDS011;4991;43.566;27.820;2023-07-30T04:20:07;9.47;;;3.70;;
9904;SDS011;4991;43.566;27.820;2023-07-30T04:22:35;5.53;;;4.20;;
9904;SDS011;4991;43.566;27.820;2023-07-30T04:25:01;5.17;;;3.60;;
9904;SDS011;4991;43.566;27.820;2023-07-30T04:27:26;4.43;;;3.83;;
9904;SDS011;4991;43.566;27.820;2023-07-30T04:29:52;6.80;;;3.57;;
9904;SDS011;4991;43.566;27.820;2023-07-30T04:32:18;5.40;;;3.50;;
9904;SDS011;4991;43.566;27.820;2023-07-30T04:34:43;4.73;;;3.80;;
9904;SDS011;4991;43.566;27.820;2023-07-30T04:37:09;5.23;;;3.50;;
9904;SDS011;4991;43.566;27.820;2023-07-30T04:39:35;5.03;;;3.73;;
9904;SDS011;4991;43.566;27.820;2023-07-30T04:42:01;4.77;;;2.80;;
9904;SDS011;4991;43.566;27.820;2023-07-30T04:44:28;5.20;;;3.10;;
9904;SDS011;4991;43.566;27.820;2023-07-30T04:46:53;3.90;;;3.50;;
9904;SDS011;4991;43.566;27.820;2023-07-30T04:49:19;4.23;;;2.97;;
9904;SDS011;4991;43.566;27.820;2023-07-30T04:51:45;3.23;;;2.93;;
9904;SDS011;4991;43.566;27.820;2023-07-30T04:54:10;5.43;;;3.40;;
9904;SDS011;4991;43.566;27.820;2023-07-30T04:56:36;3.73;;;3.30;;
9904;SDS011;4991;43.566;27.820;2023-07-30T04:59:02;6.33;;;3.23;;
9904;SDS011;4991;43.566;27.820;2023-07-30T05:01:28;3.37;;;3.07;;
9904;SDS011;4991;43.566;27.820;2023-07-30T05:03:54;4.57;;;3.67;;
9904;SDS011;4991;43.566;27.820;2023-07-30T05:06:20;3.63;;;3.30;;
9904;SDS011;4991;43.566;27.820;2023-07-30T05:08:46;3.60;;;3.13;;
9904;SDS011;4991;43.566;27.820;2023-07-30T05:11:11;3.53;;;3.17;;
9904;SDS011;4991;43.566;27.820;2023-07-30T05:13:37;4.30;;;3.20;;
9904;SDS011;4991;43.566;27.820;2023-07-30T05:16:02;4.67;;;3.10;;
9904;SDS011;4991;43.566;27.820;2023-07-30T05:18:28;4.43;;;2.83;;
9904;SDS011;4991;43.566;27.820;2023-07-30T05:20:54;3.57;;;3.20;;
9904;SDS011;4991;43.566;27.820;2023-07-30T05:23:20;5.67;;;3.33;;
9904;SDS011;4991;43.566;27.820;2023-07-30T05:25:46;6.57;;;3.83;;
9904;SDS011;4991;43.566;27.820;2023-07-30T05:28:12;5.90;;;2.90;;
9904;SDS011;4991;43.566;27.820;2023-07-30T05:30:38;3.43;;;2.90;;
9904;SDS011;4991;43.566;27.820;2023-07-30T05:33:04;3.67;;;2.37;;
9904;SDS011;4991;43.566;27.820;2023-07-30T05:35:29;6.93;;;3.50;;
9904;SDS011;4991;43.566;27.820;2023-07-30T05:37:55;4.17;;;3.00;;
9904;SDS011;4991;43.566;27.820;2023-07-30T05:40:21;4.53;;;2.33;;
9904;SDS011;4991;43.566;27.820;2023-07-30T05:42:47;15.23;;;3.20;;
9904;SDS011;4991;43.566;27.820;2023-07-30T05:45:13;3.00;;;2.70;;
9904;SDS011;4991;43.566;27.820;2023-07-30T05:47:38;2.60;;;2.37;;
9904;SDS011;4991;43.566;27.820;2023-07-30T05:50:04;3.33;;;2.50;;
9904;SDS011;4991;43.566;27.820;2023-07-30T05:52:30;3.37;;;2.60;;
9904;SDS011;4991;43.566;27.820;2023-07-30T05:54:56;3.00;;;2.70;;
9904;SDS011;4991;43.566;27.820;2023-07-30T05:57:21;2.63;;;2.38;;
9904;SDS011;4991;43.566;27.820;2023-07-30T05:59:47;4.32;;;2.67;;
9904;SDS011;4991;43.566;27.820;2023-07-30T06:02:12;8.77;;;3.08;;
9904;SDS011;4991;43.566;27.820;2023-07-30T06:04:38;6.32;;;2.88;;
9904;SDS011;4991;43.566;27.820;2023-07-30T06:07:04;2.70;;;2.40;;
9904;SDS011;4991;43.566;27.820;2023-07-30T06:09:30;4.25;;;2.78;;
9904;SDS011;4991;43.566;27.820;2023-07-30T06:11:58;3.38;;;3.03;;
9904;SDS011;4991;43.566;27.820;2023-07-30T06:14:24;3.35;;;2.60;;
9904;SDS011;4991;43.566;27.820;2023-07-30T06:16:51;2.45;;;2.25;;
9904;SDS011;4991;43.566;27.820;2023-07-30T06:19:17;3.65;;;2.70;;
9904;SDS011;4991;43.566;27.820;2023-07-30T06:21:43;5.93;;;2.35;;
9904;SDS011;4991;43.566;27.820;2023-07-30T06:24:08;2.88;;;2.08;;
9904;SDS011;4991;43.566;27.820;2023-07-30T06:26:34;4.03;;;2.22;;
9904;SDS011;4991;43.566;27.820;2023-07-30T06:28:59;4.13;;;2.97;;
9904;SDS011;4991;43.566;27.820;2023-07-30T06:31:25;3.78;;;2.20;;
9904;SDS011;4991;43.566;27.820;2023-07-30T06:33:51;2.47;;;2.22;;
9904;SDS011;4991;43.566;27.820;2023-07-30T06:36:16;2.33;;;2.13;;
9904;SDS011;4991;43.566;27.820;2023-07-30T06:38:42;3.20;;;2.40;;
9904;SDS011;4991;43.566;27.820;2023-07-30T06:41:07;2.03;;;1.83;;
9904;SDS011;4991;43.566;27.820;2023-07-30T06:43:33;2.53;;;2.28;;
9904;SDS011;4991;43.566;27.820;2023-07-30T06:45:59;2.25;;;2.05;;
9904;SDS011;4991;43.566;27.820;2023-07-30T06:48:24;3.03;;;2.53;;
9904;SDS011;4991;43.566;27.820;2023-07-30T06:50:50;4.25;;;2.40;;
9904;SDS011;4991;43.566;27.820;2023-07-30T06:53:16;2.33;;;2.10;;
9904;SDS011;4991;43.566;27.820;2023-07-30T06:55:41;4.30;;;2.45;;
9904;SDS011;4991;43.566;27.820;2023-07-30T06:58:07;3.72;;;2.30;;
9904;SDS011;4991;43.566;27.820;2023-07-30T07:00:32;4.38;;;2.38;;
9904;SDS011;4991;43.566;27.820;2023-07-30T07:02:58;4.47;;;2.35;;
9904;SDS011;4991;43.566;27.820;2023-07-30T07:05:24;2.63;;;2.40;;
9904;SDS011;4991;43.566;27.820;2023-07-30T07:07:49;3.97;;;2.10;;
9904;SDS011;4991;43.566;27.820;2023-07-30T07:10:15;3.35;;;2.60;;
9904;SDS011;4991;43.566;27.820;2023-07-30T07:12:40;2.83;;;2.45;;
9904;SDS011;4991;43.566;27.820;2023-07-30T07:15:06;6.80;;;2.75;;
9904;SDS011;4991;43.566;27.820;2023-07-30T07:17:32;4.30;;;2.60;;
9904;SDS011;4991;43.566;27.820;2023-07-30T07:19:58;5.25;;;2.47;;
9904;SDS011;4991;43.566;27.820;2023-07-30T07:22:24;2.90;;;2.25;;
9904;SDS011;4991;43.566;27.820;2023-07-30T07:24:51;3.50;;;2.40;;
9904;SDS011;4991;43.566;27.820;2023-07-30T07:27:20;3.75;;;2.25;;
9904;SDS011;4991;43.566;27.820;2023-07-30T07:29:48;2.70;;;2.50;;
9904;SDS011;4991;43.566;27.820;2023-07-30T07:32:14;2.40;;;2.20;;
9904;SDS011;4991;43.566;27.820;2023-07-30T07:34:40;6.50;;;2.53;;
9904;SDS011;4991;43.566;27.820;2023-07-30T07:37:06;2.47;;;2.28;;
9904;SDS011;4991;43.566;27.820;2023-07-30T07:39:32;3.58;;;2.50;;
9904;SDS011;4991;43.566;27.820;2023-07-30T07:41:58;3.63;;;2.58;;
9904;SDS011;4991;43.566;27.820;2023-07-30T07:44:24;3.97;;;2.67;;
9904;SDS011;4991;43.566;27.820;2023-07-30T07:46:50;4.18;;;2.42;;
9904;SDS011;4991;43.566;27.820;2023-07-30T07:49:16;5.43;;;2.42;;
9904;SDS011;4991;43.566;27.820;2023-07-30T07:51:42;3.45;;;2.40;;
9904;SDS011;4991;43.566;27.820;2023-07-30T07:54:07;12.88;;;3.72;;
9904;SDS011;4991;43.566;27.820;2023-07-30T07:56:33;2.30;;;2.10;;
9904;SDS011;4991;43.566;27.820;2023-07-30T07:58:59;3.30;;;2.75;;
9904;SDS011;4991;43.566;27.820;2023-07-30T08:01:25;3.88;;;2.55;;
9904;SDS011;4991;43.566;27.820;2023-07-30T08:03:51;3.53;;;2.38;;
9904;SDS011;4991;43.566;27.820;2023-07-30T08:06:17;3.90;;;2.60;;
9904;SDS011;4991;43.566;27.820;2023-07-30T08:08:42;3.08;;;2.78;;
9904;SDS011;4991;43.566;27.820;2023-07-30T08:11:08;2.40;;;2.20;;
9904;SDS011;4991;43.566;27.820;2023-07-30T08:13:34;2.80;;;2.60;;
9904;SDS011;4991;43.566;27.820;2023-07-30T08:16:00;4.18;;;2.40;;
9904;SDS011;4991;43.566;27.820;2023-07-30T08:18:27;2.92;;;2.60;;
9904;SDS011;4991;43.566;27.820;2023-07-30T08:20:53;2.70;;;2.50;;
9904;SDS011;4991;43.566;27.820;2023-07-30T08:23:19;5.50;;;2.63;;
9904;SDS011;4991;43.566;27.820;2023-07-30T08:25:45;3.28;;;2.97;;
9904;SDS011;4991;43.566;27.820;2023-07-30T08:28:11;4.15;;;2.50;;
9904;SDS011;4991;43.566;27.820;2023-07-30T08:30:37;3.75;;;2.40;;
9904;SDS011;4991;43.566;27.820;2023-07-30T08:33:02;3.15;;;2.40;;
9904;SDS011;4991;43.566;27.820;2023-07-30T08:35:28;7.13;;;3.55;;
9904;SDS011;4991;43.566;27.820;2023-07-30T08:37:54;3.97;;;2.60;;
9904;SDS011;4991;43.566;27.820;2023-07-30T08:40:22;3.97;;;2.80;;
9904;SDS011;4991;43.566;27.820;2023-07-30T08:42:50;4.38;;;2.85;;
9904;SDS011;4991;43.566;27.820;2023-07-30T08:45:16;3.30;;;2.80;;
9904;SDS011;4991;43.566;27.820;2023-07-30T08:47:44;5.43;;;2.83;;
9904;SDS011;4991;43.566;27.820;2023-07-30T08:50:10;6.30;;;4.15;;
9904;SDS011;4991;43.566;27.820;2023-07-30T08:52:36;4.82;;;3.38;;
9904;SDS011;4991;43.566;27.820;2023-07-30T08:55:02;4.80;;;2.67;;
9904;SDS011;4991;43.566;27.820;2023-07-30T08:57:29;5.40;;;2.55;;
9904;SDS011;4991;43.566;27.820;2023-07-30T09:00:05;4.63;;;3.33;;
9904;SDS011;4991;43.566;27.820;2023-07-30T09:05:08;7.47;;;3.10;;
9904;SDS011;4991;43.566;27.820;2023-07-30T09:07:34;7.38;;;3.20;;
9904;SDS011;4991;43.566;27.820;2023-07-30T09:10:00;9.40;;;3.78;;
9904;SDS011;4991;43.566;27.820;2023-07-30T09:12:32;4.57;;;3.33;;
9904;SDS011;4991;43.566;27.820;2023-07-30T09:14:59;4.32;;;2.75;;
9904;SDS011;4991;43.566;27.820;2023-07-30T09:17:25;6.13;;;3.58;;
9904;SDS011;4991;43.566;27.820;2023-07-30T09:19:51;4.68;;;2.88;;
9904;SDS011;4991;43.566;27.820;2023-07-30T09:22:27;3.85;;;3.05;;
9904;SDS011;4991;43.566;27.820;2023-07-30T09:24:56;4.35;;;3.13;;
9904;SDS011;4991;43.566;27.820;2023-07-30T09:27:23;3.80;;;3.03;;
9904;SDS011;4991;43.566;27.820;2023-07-30T09:29:58;9.27;;;2.55;;
9904;SDS011;4991;43.566;27.820;2023-07-30T09:32:26;4.88;;;2.97;;
9904;SDS011;4991;43.566;27.820;2023-07-30T09:34:53;2.60;;;2.40;;
9904;SDS011;4991;43.566;27.820;2023-07-30T09:37:18;4.47;;;2.30;;
9904;SDS011;4991;43.566;27.820;2023-07-30T09:39:44;4.43;;;2.72;;
9904;SDS011;4991;43.566;27.820;2023-07-30T09:42:13;3.17;;;2.13;;
9904;SDS011;4991;43.566;27.820;2023-07-30T09:44:38;2.63;;;2.25;;
9904;SDS011;4991;43.566;27.820;2023-07-30T09:47:05;4.93;;;2.97;;
9904;SDS011;4991;43.566;27.820;2023-07-30T09:49:35;3.78;;;2.58;;
9904;SDS011;4991;43.566;27.820;2023-07-30T09:52:04;4.45;;;3.00;;
9904;SDS011;4991;43.566;27.820;2023-07-30T09:54:31;6.57;;;2.80;;
9904;SDS011;4991;43.566;27.820;2023-07-30T09:56:58;5.18;;;3.30;;
9904;SDS011;4991;43.566;27.820;2023-07-30T09:59:23;3.35;;;2.63;;
9904;SDS011;4991;43.566;27.820;2023-07-30T10:01:49;2.35;;;2.10;;
9904;SDS011;4991;43.566;27.820;2023-07-30T10:04:21;3.78;;;3.05;;
9904;SDS011;4991;43.566;27.820;2023-07-30T10:09:20;5.03;;;2.97;;
9904;SDS011;4991;43.566;27.820;2023-07-30T10:11:48;3.00;;;2.63;;
9904;SDS011;4991;43.566;27.820;2023-07-30T10:14:16;2.50;;;2.30;;
9904;SDS011;4991;43.566;27.820;2023-07-30T10:16:50;3.05;;;2.33;;
9904;SDS011;4991;43.566;27.820;2023-07-30T10:19:16;5.97;;;2.60;;
9904;SDS011;4991;43.566;27.820;2023-07-30T10:21:43;3.53;;;2.10;;
9904;SDS011;4991;43.566;27.820;2023-07-30T10:24:09;4.13;;;3.38;;
9904;SDS011;4991;43.566;27.820;2023-07-30T10:26:35;3.58;;;3.08;;
9904;SDS011;4991;43.566;27.820;2023-07-30T10:29:12;2.22;;;2.03;;
9904;SDS011;4991;43.566;27.820;2023-07-30T10:31:42;3.95;;;2.35;;
9904;SDS011;4991;43.566;27.820;2023-07-30T10:34:12;3.60;;;2.20;;
9904;SDS011;4991;43.566;27.820;2023-07-30T10:39:20;3.47;;;2.72;;
9904;SDS011;4991;43.566;27.820;2023-07-30T10:41:51;3.70;;;3.30;;
9904;SDS011;4991;43.566;27.820;2023-07-30T10:44:21;4.90;;;2.70;;
9904;SDS011;4991;43.566;27.820;2023-07-30T10:46:54;2.33;;;2.13;;
9904;SDS011;4991;43.566;27.820;2023-07-30T10:49:21;2.90;;;2.60;;
9904;SDS011;4991;43.566;27.820;2023-07-30T10:51:47;3.17;;;2.00;;
9904;SDS011;4991;43.566;27.820;2023-07-30T10:54:12;3.97;;;2.75;;
9904;SDS011;4991;43.566;27.820;2023-07-30T10:56:38;2.75;;;2.38;;
9904;SDS011;4991;43.566;27.820;2023-07-30T10:59:05;2.40;;;2.20;;
9904;SDS011;4991;43.566;27.820;2023-07-30T11:01:35;2.30;;;2.10;;
9904;SDS011;4991;43.566;27.820;2023-07-30T11:04:09;3.22;;;2.45;;
9904;SDS011;4991;43.566;27.820;2023-07-30T11:06:39;2.50;;;2.30;;
9904;SDS011;4991;43.566;27.820;2023-07-30T11:09:05;2.55;;;2.30;;
9904;SDS011;4991;43.566;27.820;2023-07-30T11:11:31;2.67;;;2.47;;
9904;SDS011;4991;43.566;27.820;2023-07-30T11:13:57;4.55;;;2.75;;
9904;SDS011;4991;43.566;27.820;2023-07-30T11:16:23;2.55;;;2.35;;
9904;SDS011;4991;43.566;27.820;2023-07-30T11:18:49;3.65;;;2.90;;
9904;SDS011;4991;43.566;27.820;2023-07-30T11:21:16;4.47;;;2.60;;
9904;SDS011;4991;43.566;27.820;2023-07-30T11:23:43;3.47;;;3.17;;
9904;SDS011;4991;43.566;27.820;2023-07-30T11:26:16;2.88;;;2.67;;
9904;SDS011;4991;43.566;27.820;2023-07-30T11:28:43;3.17;;;2.80;;
9904;SDS011;4991;43.566;27.820;2023-07-30T11:31:17;3.20;;;2.90;;
9904;SDS011;4991;43.566;27.820;2023-07-30T11:33:46;3.35;;;2.92;;
9904;SDS011;4991;43.566;27.820;2023-07-30T11:36:14;5.70;;;2.45;;
9904;SDS011;4991;43.566;27.820;2023-07-30T11:38:42;2.67;;;2.47;;
9904;SDS011;4991;43.566;27.820;2023-07-30T11:41:09;2.53;;;1.90;;
9904;SDS011;4991;43.566;27.820;2023-07-30T11:43:37;3.47;;;2.05;;
9904;SDS011;4991;43.566;27.820;2023-07-30T11:46:14;4.15;;;2.65;;
9904;SDS011;4991;43.566;27.820;2023-07-30T11:48:42;5.68;;;2.10;;
9904;SDS011;4991;43.566;27.820;2023-07-30T11:54:04;2.50;;;2.28;;
9904;SDS011;4991;43.566;27.820;2023-07-30T11:56:32;6.50;;;2.75;;
9904;SDS011;4991;43.566;27.820;2023-07-30T11:59:05;2.47;;;2.28;;
9904;SDS011;4991;43.566;27.820;2023-07-30T12:01:32;2.35;;;2.15;;
9904;SDS011;4991;43.566;27.820;2023-07-30T12:04:00;2.30;;;2.10;;
9904;SDS011;4991;43.566;27.820;2023-07-30T12:09:15;4.38;;;2.22;;
9904;SDS011;4991;43.566;27.820;2023-07-30T12:14:24;4.70;;;2.58;;
9904;SDS011;4991;43.566;27.820;2023-07-30T12:16:55;6.32;;;2.72;;
9904;SDS011;4991;43.566;27.820;2023-07-30T12:19:26;4.55;;;3.55;;
9904;SDS011;4991;43.566;27.820;2023-07-30T12:21:53;3.47;;;2.22;;
9904;SDS011;4991;43.566;27.820;2023-07-30T12:24:18;3.10;;;2.67;;
9904;SDS011;4991;43.566;27.820;2023-07-30T12:26:44;5.40;;;3.60;;
9904;SDS011;4991;43.566;27.820;2023-07-30T12:29:10;2.35;;;2.15;;
9904;SDS011;4991;43.566;27.820;2023-07-30T12:31:35;2.88;;;2.30;;
9904;SDS011;4991;43.566;27.820;2023-07-30T12:34:01;3.28;;;2.30;;
9904;SDS011;4991;43.566;27.820;2023-07-30T12:36:28;7.20;;;2.85;;
9904;SDS011;4991;43.566;27.820;2023-07-30T12:38:56;4.28;;;2.00;;
9904;SDS011;4991;43.566;27.820;2023-07-30T12:41:22;3.53;;;2.10;;
9904;SDS011;4991;43.566;27.820;2023-07-30T12:43:51;2.20;;;2.00;;
9904;SDS011;4991;43.566;27.820;2023-07-30T12:46:18;5.28;;;2.58;;
9904;SDS011;4991;43.566;27.820;2023-07-30T12:48:44;3.92;;;2.50;;
9904;SDS011;4991;43.566;27.820;2023-07-30T12:51:09;4.05;;;3.03;;
9904;SDS011;4991;43.566;27.820;2023-07-30T12:53:35;2.15;;;1.95;;
9904;SDS011;4991;43.566;27.820;2023-07-30T12:56:01;11.45;;;2.50;;
9904;SDS011;4991;43.566;27.820;2023-07-30T12:58:27;2.25;;;2.05;;
9904;SDS011;4991;43.566;27.820;2023-07-30T13:00:52;3.53;;;2.20;;
9904;SDS011;4991;43.566;27.820;2023-07-30T13:03:18;2.10;;;1.90;;
9904;SDS011;4991;43.566;27.820;2023-07-30T13:05:43;4.07;;;2.70;;
9904;SDS011;4991;43.566;27.820;2023-07-30T13:08:09;6.05;;;4.05;;
9904;SDS011;4991;43.566;27.820;2023-07-30T13:10:35;4.40;;;4.00;;
9904;SDS011;4991;43.566;27.820;2023-07-30T13:13:00;4.75;;;2.85;;
9904;SDS011;4991;43.566;27.820;2023-07-30T13:15:27;6.60;;;2.80;;
9904;SDS011;4991;43.566;27.820;2023-07-30T13:17:53;6.18;;;4.35;;
9904;SDS011;4991;43.566;27.820;2023-07-30T13:20:19;5.97;;;4.18;;
9904;SDS011;4991;43.566;27.820;2023-07-30T13:22:44;7.45;;;5.47;;
9904;SDS011;4991;43.566;27.820;2023-07-30T13:25:10;3.72;;;2.88;;
9904;SDS011;4991;43.566;27.820;2023-07-30T13:27:36;3.55;;;2.85;;
9904;SDS011;4991;43.566;27.820;2023-07-30T13:30:01;2.55;;;2.35;;
9904;SDS011;4991;43.566;27.820;2023-07-30T13:32:27;3.22;;;2.92;;
9904;SDS011;4991;43.566;27.820;2023-07-30T13:34:53;5.60;;;5.10;;
9904;SDS011;4991;43.566;27.820;2023-07-30T13:37:18;3.22;;;2.55;;
9904;SDS011;4991;43.566;27.820;2023-07-30T13:39:44;5.15;;;2.88;;
9904;SDS011;4991;43.566;27.820;2023-07-30T13:42:10;15.65;;;2.88;;
9904;SDS011;4991;43.566;27.820;2023-07-30T13:44:35;2.20;;;2.05;;
9904;SDS011;4991;43.566;27.820;2023-07-30T13:47:01;2.85;;;2.65;;
9904;SDS011;4991;43.566;27.820;2023-07-30T13:49:27;3.15;;;2.30;;
9904;SDS011;4991;43.566;27.820;2023-07-30T13:51:52;2.28;;;1.80;;
9904;SDS011;4991;43.566;27.820;2023-07-30T13:54:18;2.88;;;1.90;;
9904;SDS011;4991;43.566;27.820;2023-07-30T13:56:44;2.50;;;2.13;;
9904;SDS011;4991;43.566;27.820;2023-07-30T13:59:09;4.32;;;2.60;;
9904;SDS011;4991;43.566;27.820;2023-07-30T14:01:35;7.35;;;2.17;;
9904;SDS011;4991;43.566;27.820;2023-07-30T14:04:00;6.25;;;2.40;;
9904;SDS011;4991;43.566;27.820;2023-07-30T14:06:26;3.38;;;2.90;;
9904;SDS011;4991;43.566;27.820;2023-07-30T14:08:53;4.63;;;2.85;;
9904;SDS011;4991;43.566;27.820;2023-07-30T14:11:18;2.72;;;2.45;;
9904;SDS011;4991;43.566;27.820;2023-07-30T14:13:44;2.72;;;1.85;;
9904;SDS011;4991;43.566;27.820;2023-07-30T14:16:09;3.00;;;2.25;;
9904;SDS011;4991;43.566;27.820;2023-07-30T14:18:35;3.90;;;2.33;;
9904;SDS011;4991;43.566;27.820;2023-07-30T14:21:01;3.08;;;2.20;;
9904;SDS011;4991;43.566;27.820;2023-07-30T14:23:27;2.08;;;1.88;;
9904;SDS011;4991;43.566;27.820;2023-07-30T14:25:53;2.60;;;2.00;;
9904;SDS011;4991;43.566;27.820;2023-07-30T14:28:19;3.40;;;2.28;;
9904;SDS011;4991;43.566;27.820;2023-07-30T14:30:44;4.20;;;2.80;;
9904;SDS011;4991;43.566;27.820;2023-07-30T14:33:10;4.38;;;3.47;;
9904;SDS011;4991;43.566;27.820;2023-07-30T14:35:36;2.08;;;1.88;;
9904;SDS011;4991;43.566;27.820;2023-07-30T14:38:05;3.17;;;2.30;;
9904;SDS011;4991;43.566;27.820;2023-07-30T14:40:31;2.58;;;2.20;;
9904;SDS011;4991;43.566;27.820;2023-07-30T14:42:57;4.53;;;2.00;;
9904;SDS011;4991;43.566;27.820;2023-07-30T14:45:24;2.47;;;2.28;;
9904;SDS011;4991;43.566;27.820;2023-07-30T14:47:50;5.32;;;2.10;;
9904;SDS011;4991;43.566;27.820;2023-07-30T14:50:15;3.20;;;2.90;;
9904;SDS011;4991;43.566;27.820;2023-07-30T14:52:42;5.00;;;3.28;;
9904;SDS011;4991;43.566;27.820;2023-07-30T14:55:08;2.65;;;2.20;;
9904;SDS011;4991;43.566;27.820;2023-07-30T14:57:33;3.80;;;2.25;;
9904;SDS011;4991;43.566;27.820;2023-07-30T14:59:59;2.88;;;1.63;;
9904;SDS011;4991;43.566;27.820;2023-07-30T15:02:26;2.33;;;2.13;;
9904;SDS011;4991;43.566;27.820;2023-07-30T15:04:53;4.20;;;2.58;;
9904;SDS011;4991;43.566;27.820;2023-07-30T15:07:20;5.22;;;3.10;;
9904;SDS011;4991;43.566;27.820;2023-07-30T15:09:53;5.53;;;4.00;;
9904;SDS011;4991;43.566;27.820;2023-07-30T15:12:19;6.85;;;3.70;;